createdAt,value
2023-04-03T00:02:41.816Z,4.58
2023-04-03T00:07:43.645Z,4.51
2023-04-03T00:12:45.301Z,4.22
2023-04-03T00:17:46.992Z,4.32
2023-04-03T00:22:48.604Z,4.56
2023-04-03T00:27:50.307Z,4.12
2023-04-03T00:32:53.769Z,4.28
2023-04-03T00:37:56.556Z,4.15
2023-04-03T00:43:00.431Z,4.09
2023-04-03T00:48:06.695Z,4.18
2023-04-03T00:53:11.264Z,4.17
2023-04-03T00:58:13.252Z,4.28
2023-04-03T01:03:14.867Z,4.27
2023-04-03T01:08:16.644Z,4.03
2023-04-03T01:13:22.033Z,4.04
2023-04-03T01:18:27.366Z,4.20
2023-04-03T01:23:41.180Z,4.07
2023-04-03T01:28:42.958Z,4.06
2023-04-03T01:33:44.833Z,3.67
2023-04-03T01:38:46.713Z,3.77
2023-04-03T01:43:49.479Z,4.07
2023-04-03T01:48:51.140Z,4.02
2023-04-03T01:53:52.957Z,3.69
2023-04-03T01:58:54.635Z,3.67
2023-04-03T02:03:56.316Z,3.68
2023-04-03T02:08:58.047Z,3.67
2023-04-03T02:13:59.636Z,3.65
2023-04-03T02:19:01.461Z,3.85
2023-04-03T02:24:05.215Z,3.55
2023-04-03T02:29:06.878Z,3.22
2023-04-03T02:34:10.491Z,3.52
2023-04-03T02:39:12.519Z,3.60
2023-04-03T02:44:14.500Z,3.13
2023-04-03T02:49:16.506Z,3.00
2023-04-03T02:54:18.241Z,2.69
2023-04-03T02:59:24.615Z,2.78
2023-04-03T03:04:26.377Z,3.10
2023-04-03T03:09:28.172Z,2.52
2023-04-03T03:14:29.895Z,2.84
2023-04-03T03:19:31.507Z,2.57
2023-04-03T03:24:33.195Z,2.33
2023-04-03T03:29:34.829Z,2.23
2023-04-03T03:34:38.304Z,2.23
2023-04-03T03:39:41.114Z,2.00
2023-04-03T03:44:42.804Z,2.09
2023-04-03T03:49:44.523Z,1.98
2023-04-03T03:54:46.538Z,2.20
2023-04-03T03:59:49.710Z,1.93
2023-04-03T04:04:53.567Z,2.03
2023-04-03T04:09:55.676Z,2.00
2023-04-03T04:14:57.539Z,1.86
2023-04-03T04:20:00.096Z,1.87
2023-04-03T04:25:02.289Z,1.47
2023-04-03T04:30:05.417Z,1.52
2023-04-03T04:35:08.519Z,1.50
2023-04-03T04:40:14.715Z,1.59
2023-04-03T04:45:16.822Z,1.58
2023-04-03T04:50:20.828Z,1.28
2023-04-03T04:55:22.659Z,1.47
2023-04-03T05:00:25.924Z,1.32
2023-04-03T05:05:27.670Z,1.59
2023-04-03T05:10:29.717Z,1.38
2023-04-03T05:15:31.691Z,1.55
2023-04-03T05:20:33.925Z,1.58
2023-04-03T05:25:35.911Z,1.37
2023-04-03T05:30:38.490Z,1.20
2023-04-03T05:35:42.260Z,1.48
2023-04-03T05:40:47.162Z,2.01
2023-04-03T05:45:49.255Z,1.96
2023-04-03T05:50:51.597Z,1.80
2023-04-03T05:55:58.537Z,1.81
2023-04-03T06:01:01.562Z,2.07
2023-04-03T06:06:05.378Z,2.15
2023-04-03T06:11:07.156Z,2.24
2023-04-03T06:16:12.644Z,2.22
2023-04-03T06:21:14.928Z,2.07
2023-04-03T06:26:16.628Z,2.53
2023-04-03T06:31:18.325Z,2.19
2023-04-03T06:36:21.651Z,2.05
2023-04-03T06:41:23.493Z,2.60
2023-04-03T06:46:27.093Z,2.30
2023-04-03T06:51:30.102Z,2.37
2023-04-03T06:56:31.811Z,2.24
2023-04-03T07:01:33.710Z,2.49
2023-04-03T07:06:35.977Z,2.61
2023-04-03T07:11:37.678Z,2.12
2023-04-03T07:16:41.100Z,2.43
2023-04-03T07:21:44.428Z,2.91
2023-04-03T07:26:46.419Z,2.37
2023-04-03T07:31:48.672Z,2.55
2023-04-03T07:36:50.372Z,2.31
2023-04-03T07:41:52.133Z,2.80
2023-04-03T07:46:53.790Z,2.67
2023-04-03T07:51:56.600Z,2.58
2023-04-03T07:56:58.676Z,3.00
2023-04-03T08:02:00.613Z,2.90
2023-04-03T08:07:02.446Z,3.26
2023-04-03T08:12:04.192Z,3.00
2023-04-03T08:17:06.472Z,2.85
2023-04-03T08:22:08.340Z,2.93
2023-04-03T08:27:09.999Z,3.18
2023-04-03T08:32:11.906Z,3.06
2023-04-03T08:37:13.538Z,3.35
2023-04-03T08:42:21.126Z,3.35
2023-04-03T08:47:27.412Z,3.38
2023-04-03T08:52:50.105Z,3.94
2023-04-03T08:58:05.340Z,3.67
2023-04-03T09:03:13.764Z,3.55
2023-04-03T09:08:24.001Z,3.98
2023-04-03T09:13:39.493Z,3.74
2023-04-03T09:18:44.288Z,4.29
2023-04-03T09:23:49.306Z,4.45
2023-04-03T09:28:51.451Z,4.12
2023-04-03T09:34:01.581Z,4.30
2023-04-03T09:39:08.995Z,4.14
2023-04-03T09:44:22.371Z,4.19
2023-04-03T09:49:24.009Z,4.47
2023-04-03T09:54:41.378Z,4.98
2023-04-03T09:59:49.098Z,4.60
2023-04-03T10:04:58.741Z,4.52
2023-04-03T10:10:16.163Z,4.26
2023-04-03T10:15:22.495Z,4.47
2023-04-03T10:20:48.330Z,4.47
2023-04-03T10:26:13.997Z,4.88
2023-04-03T10:31:27.768Z,4.93
2023-04-03T10:36:51.525Z,5.10
2023-04-03T10:41:58.048Z,4.85
2023-04-03T10:47:25.653Z,5.13
2023-04-03T10:52:47.700Z,5.14
2023-04-03T10:57:51.286Z,5.13
2023-04-03T11:02:58.874Z,5.36
2023-04-03T11:08:06.356Z,5.06
2023-04-03T11:13:10.380Z,5.16
2023-04-03T11:18:25.109Z,4.94
2023-04-03T11:23:30.388Z,5.18
2023-04-03T11:28:38.144Z,5.52
2023-04-03T11:33:58.224Z,5.32
2023-04-03T11:39:18.011Z,5.30
2023-04-03T11:44:37.644Z,5.79
2023-04-03T11:50:04.544Z,5.35
2023-04-03T11:55:24.212Z,5.53
2023-04-03T12:00:44.336Z,5.65
2023-04-03T12:05:45.943Z,5.38
2023-04-03T12:11:15.481Z,5.42
2023-04-03T12:16:40.147Z,5.46
2023-04-03T12:21:47.705Z,5.74
2023-04-03T12:27:04.096Z,5.69
2023-04-03T12:32:06.201Z,5.31
2023-04-03T12:37:29.247Z,5.47
2023-04-03T12:42:57.918Z,5.54
2023-04-03T12:48:03.592Z,5.52
2023-04-03T12:53:07.616Z,5.43
2023-04-03T12:58:27.592Z,5.86
2023-04-03T13:03:29.678Z,5.41
2023-04-03T13:08:31.727Z,5.25
2023-04-03T13:13:33.466Z,5.52
2023-04-03T13:18:36.351Z,5.57
2023-04-03T13:23:40.765Z,5.57
2023-04-03T13:28:42.832Z,5.46
2023-04-03T13:33:57.589Z,5.70
2023-04-03T13:39:19.118Z,5.27
2023-04-03T13:44:23.441Z,5.46
2023-04-03T13:49:35.189Z,5.69
2023-04-03T13:54:39.480Z,5.18
2023-04-03T13:59:41.219Z,5.29
2023-04-03T14:04:45.885Z,5.17
2023-04-03T14:09:47.544Z,5.25
2023-04-03T14:14:49.231Z,5.24
2023-04-03T14:19:52.499Z,5.16
2023-04-03T14:24:54.230Z,5.33
2023-04-03T14:29:59.135Z,5.17
2023-04-03T14:35:01.560Z,5.09
2023-04-03T14:40:09.559Z,5.21
2023-04-03T14:45:12.982Z,5.09
2023-04-03T14:50:18.428Z,5.22
2023-04-03T14:55:22.357Z,5.25
2023-04-03T15:00:24.214Z,5.35
2023-04-03T15:05:26.257Z,5.21
2023-04-03T15:10:29.977Z,4.74
2023-04-03T15:15:32.073Z,5.09
2023-04-03T15:20:34.653Z,5.23
2023-04-03T15:25:36.297Z,5.09
2023-04-03T15:30:40.847Z,5.25
2023-04-03T15:35:43.111Z,5.21
2023-04-03T15:40:44.917Z,5.06
2023-04-03T15:45:46.654Z,4.89
2023-04-03T15:50:48.678Z,5.19
2023-04-03T15:55:51.233Z,5.05
2023-04-03T16:00:53.304Z,4.99
2023-04-03T16:05:55.051Z,4.98
2023-04-03T16:10:56.658Z,4.93
2023-04-03T16:15:58.297Z,4.96
2023-04-03T16:21:00.043Z,5.05
2023-04-03T16:26:01.734Z,4.75
2023-04-03T16:31:03.851Z,4.60
2023-04-03T16:36:06.210Z,4.54
2023-04-03T16:41:07.835Z,4.64
2023-04-03T16:46:09.520Z,4.47
2023-04-03T16:51:11.179Z,4.61
2023-04-03T16:56:12.782Z,4.64
2023-04-03T17:01:16.716Z,4.64
2023-04-03T17:06:20.427Z,4.32
2023-04-03T17:11:22.218Z,4.17
2023-04-03T17:16:24.679Z,4.21
2023-04-03T17:21:26.565Z,4.15
2023-04-03T17:26:28.348Z,3.89
2023-04-03T17:31:30.038Z,4.14
2023-04-03T17:36:33.483Z,3.94
2023-04-03T17:41:35.324Z,3.97
2023-04-03T17:46:36.952Z,4.00
2023-04-03T17:51:38.605Z,4.04
2023-04-03T17:56:41.728Z,4.02
2023-04-03T18:01:45.189Z,3.62
2023-04-03T18:06:48.869Z,4.06
2023-04-03T18:11:51.496Z,4.14
2023-04-03T18:16:53.268Z,3.77
2023-04-03T18:22:00.995Z,3.77
2023-04-03T18:27:06.269Z,3.68
2023-04-03T18:32:09.085Z,3.73
2023-04-03T18:37:10.840Z,3.62
2023-04-03T18:42:18.244Z,4.01
2023-04-03T18:47:19.994Z,3.98
2023-04-03T18:52:21.802Z,4.26
2023-04-03T18:57:24.438Z,4.42
2023-04-03T19:02:26.968Z,4.13
2023-04-03T19:07:28.726Z,4.18
2023-04-03T19:12:30.522Z,4.22
2023-04-03T19:17:32.684Z,3.81
2023-04-03T19:22:34.419Z,4.15
2023-04-03T19:27:36.523Z,3.99
2023-04-03T19:32:38.227Z,4.36
2023-04-03T19:37:39.881Z,4.22
2023-04-03T19:42:42.979Z,4.07
2023-04-03T19:47:45.110Z,3.98
2023-04-03T19:52:46.755Z,4.23
2023-04-03T19:57:48.451Z,4.23
2023-04-03T20:02:50.818Z,4.01
2023-04-03T20:07:52.634Z,4.12
2023-04-03T20:12:54.245Z,3.98
2023-04-03T20:17:56.004Z,4.12
2023-04-03T20:22:59.241Z,3.93
2023-04-03T20:28:00.868Z,3.77
2023-04-03T20:33:03.934Z,3.79
2023-04-03T20:38:07.190Z,4.03
2023-04-03T20:43:09.208Z,4.06
2023-04-03T20:48:13.096Z,4.35
2023-04-03T20:53:17.899Z,4.04
2023-04-03T20:58:19.844Z,4.23
2023-04-03T21:03:26.627Z,4.04
2023-04-03T21:09:05.868Z,3.91
2023-04-03T21:14:45.910Z,3.86
2023-04-03T21:19:48.720Z,3.81
2023-04-03T21:24:50.650Z,3.95
2023-04-03T21:29:52.342Z,3.85
2023-04-03T21:34:53.990Z,3.79
2023-04-03T21:39:55.601Z,3.93
2023-04-03T21:44:58.255Z,3.76
2023-04-03T21:49:59.839Z,3.80
2023-04-03T21:55:01.631Z,3.60
2023-04-03T22:00:05.026Z,3.77
2023-04-03T22:05:07.410Z,3.78
2023-04-03T22:10:09.003Z,3.73
2023-04-03T22:15:10.725Z,3.71
2023-04-03T22:20:12.337Z,3.65
2023-04-03T22:25:13.941Z,3.58
2023-04-03T22:30:15.505Z,3.96
2023-04-03T22:35:17.087Z,3.96
2023-04-03T22:40:18.737Z,3.67
2023-04-03T22:45:20.627Z,3.70
2023-04-03T22:50:22.473Z,3.85
2023-04-03T22:55:24.977Z,3.87
2023-04-03T23:00:28.061Z,3.97
2023-04-03T23:05:30.961Z,3.75
2023-04-03T23:10:32.552Z,3.92
2023-04-03T23:15:34.146Z,3.71
2023-04-03T23:20:35.753Z,4.06
2023-04-03T23:25:37.759Z,3.59
2023-04-03T23:30:39.472Z,3.62
2023-04-03T23:35:46.531Z,3.80
2023-04-03T23:40:48.252Z,3.55
2023-04-03T23:45:49.854Z,3.60
2023-04-03T23:50:51.918Z,3.55
2023-04-03T23:55:53.534Z,3.61
